Bei Facebook empfehlenBei Twitter postenGoogle plusPinterest

Das Wetter im Erzgebirge am 23.04.2015

Wetter und Klima am 23.04.2015 Holzhau im Erzgebirge (630m ü.NN)
Letzte gemessene Temperatur und Uhrzeit der Messung23:45:00 Uhr2.70 °C
Temperatur (Maximum / Höchstwert) und Uhrzeit der Messung15:15:00 Uhr17.90 °C
Temperatur (Minimum / Tiefstwert) und Uhrzeit der Messung02:00:00-1.90 °C
Errechneter Absolutwert der Temperaturschwankungen zwischen Tmin und Tmax des Tages19.80 K
Errechnete Tagesmitteltemperatur7.38125 °C
Gesamt - Niederschlag des Tages (in flüssiger Form)0.00 Liter / m²
Luftdruck (Maximum / Höchstwert) und Zeitpunkt der Messung00:15:00 Uhr1019.60 hPa
Luftdruck (Minimum / Tiefstwert) und Zeitpunkt der Messung18:45:00 Uhr1013.80 hPa
Errechneter Absolutwert der Luftdruckschwankungen des Tages5.80 hPa
Höchste gemessene Windgeschwindigkeit und Uhrzeit der Messung16:15:00 Uhr10.08 km/h
Errechnete Windhäufigkeit in Relation zu den Messwerten des Tages5.20833 %
Niedrigste Windkühle (Windchill) und Zeitpunkt der Messung02:00:00 Uhr-1.90 °C
Taupunkt (Maximum / Höchstwert) und Uhrzeit der Messung15:15:00 Uhr7.90 °C
Taupunkt (Minimum / Tiefstwert) und Uhrzeit der Messung02:00:00-3.80 °C
Anzahl der automatisch eingelesenen Messwerte 96

Detaillierte Wetter- und Klima- Messwerte für den 23.04.2015 in Holzhau im Erzgebirge (630m ü.NN)
ZeitTemperaturLuftdruckRel. LuftfeuchteWindWindrichtungWindchillTaupunktNiederschlag l/m²
23:45:002.70 °C1014.30 hPa88.00 %9.36 km/hOSO0.10 °C0.90 °C 
23:30:002.90 °C1014.40 hPa87.00 %1.00 °C 
23:15:003.20 °C1014.30 hPa87.00 %1.30 °C 
23:00:003.40 °C1014.40 hPa86.00 %1.30 °C 
22:45:003.80 °C1014.40 hPa86.00 %1.70 °C 
22:30:004.20 °C1014.40 hPa85.00 %1.90 °C 
22:15:004.50 °C1014.50 hPa85.00 %2.20 °C 
22:00:004.90 °C1014.40 hPa84.00 %2.40 °C 
21:45:005.30 °C1014.40 hPa84.00 %2.80 °C 
21:30:005.30 °C1014.60 hPa82.00 %2.50 °C 
21:15:005.80 °C1014.40 hPa80.00 %2.60 °C 
21:00:006.40 °C1014.50 hPa79.00 %3.00 °C 
20:45:006.90 °C1014.50 hPa77.00 %3.20 °C 
20:30:007.80 °C1014.30 hPa74.00 %3.50 °C 
20:15:008.90 °C1014.20 hPa72.00 %4.10 °C 
20:00:0010.10 °C1014.30 hPa69.00 %4.70 °C 
19:45:0011.30 °C1014.10 hPa67.00 %5.40 °C 
19:30:0012.40 °C1014.00 hPa65.00 %6.00 °C 
19:15:0012.90 °C1014.00 hPa64.00 %6.30 °C 
19:00:0013.10 °C1013.90 hPa62.00 %6.00 °C 
18:45:0013.80 °C1013.80 hPa60.00 %6.20 °C 
18:30:0014.30 °C1014.00 hPa59.00 %6.40 °C 
18:15:0014.80 °C1013.90 hPa59.00 %6.90 °C 
18:00:0015.40 °C1013.90 hPa57.00 %6.90 °C 
17:45:0015.40 °C1014.00 hPa57.00 %6.90 °C 
17:30:0015.10 °C1014.10 hPa58.00 %6.90 °C 
17:15:0014.60 °C1014.00 hPa58.00 %7.20 km/hONO14.50 °C6.40 °C 
17:00:0014.90 °C1014.10 hPa56.00 %6.20 °C 
16:45:0015.40 °C1014.10 hPa55.00 %6.40 °C 
16:30:0015.40 °C1014.10 hPa54.00 %6.10 °C 
16:15:0016.10 °C1014.10 hPa55.00 %10.08 km/hSO15.90 °C7.10 °C 
16:00:0015.90 °C1014.40 hPa53.00 %6.30 °C 
15:45:0016.60 °C1014.40 hPa51.00 %6.40 °C 
15:30:0017.40 °C1014.40 hPa50.00 %6.90 °C 
15:15:0017.90 °C1014.60 hPa52.00 %7.20 km/hN18.40 °C7.90 °C 
15:00:0016.90 °C1014.50 hPa55.00 %7.80 °C 
14:45:0016.10 °C1014.80 hPa54.00 %6.80 °C 
14:30:0015.90 °C1014.90 hPa55.00 %6.90 °C 
14:15:0015.30 °C1015.10 hPa55.00 %6.30 °C 
14:00:0015.90 °C1015.00 hPa55.00 %6.90 °C 
13:45:0015.80 °C1015.10 hPa54.00 %6.50 °C 
13:30:0016.50 °C1015.20 hPa53.00 %3.60 km/hNNW16.50 °C6.90 °C 
13:15:0015.80 °C1015.40 hPa55.00 %6.80 °C 
13:00:0015.60 °C1015.60 hPa56.00 %6.90 °C 
12:45:0015.20 °C1015.80 hPa57.00 %6.70 °C 
12:30:0014.90 °C1015.80 hPa58.00 %6.70 °C 
12:15:0013.80 °C1016.00 hPa59.00 %5.90 °C 
12:00:0013.90 °C1016.20 hPa58.00 %5.80 °C 
11:45:0013.40 °C1016.50 hPa61.00 %6.00 °C 
11:30:0013.30 °C1016.50 hPa61.00 %5.90 °C 
11:15:0013.10 °C1016.60 hPa64.00 %6.50 °C 
11:00:0012.10 °C1016.50 hPa64.00 %5.50 °C 
10:45:0011.80 °C1016.70 hPa64.00 %5.20 °C 
10:30:0013.00 °C1016.50 hPa63.00 %6.10 °C 
10:15:0013.40 °C1016.70 hPa65.00 %7.00 °C 
10:00:0012.60 °C1016.70 hPa69.00 %7.10 °C 
09:45:0011.60 °C1016.60 hPa71.00 %6.50 °C 
09:30:0010.60 °C1016.70 hPa76.00 %6.60 °C 
09:15:009.40 °C1016.80 hPa81.00 %6.30 °C 
09:00:007.90 °C1017.00 hPa85.00 %5.50 °C 
08:45:006.80 °C1017.20 hPa87.00 %4.80 °C 
08:30:005.40 °C1017.00 hPa89.00 %3.70 °C 
08:15:004.40 °C1017.10 hPa90.00 %2.90 °C 
08:00:003.60 °C1016.80 hPa90.00 %2.10 °C 
07:45:002.40 °C1016.80 hPa90.00 %0.90 °C 
07:30:001.30 °C1016.80 hPa91.00 %0.00 °C 
07:15:00-0.20 °C1016.90 hPa91.00 %-1.60 °C 
07:00:00-0.90 °C1017.10 hPa91.00 %-2.30 °C 
06:45:00-1.10 °C1017.20 hPa91.00 %-2.50 °C 
06:30:00-1.10 °C1017.20 hPa91.00 %-2.50 °C 
06:15:00-1.30 °C1017.20 hPa91.00 %-2.70 °C 
06:00:00-1.40 °C1017.30 hPa90.00 %-3.00 °C 
05:45:00-1.20 °C1017.50 hPa90.00 %-2.80 °C 
05:30:00-1.60 °C1017.90 hPa90.00 %-3.20 °C 
05:15:00-1.70 °C1017.80 hPa90.00 %-3.30 °C 
05:00:00-1.50 °C1017.70 hPa89.00 %-3.30 °C 
04:45:00-1.50 °C1018.10 hPa89.00 %-3.30 °C 
04:30:00-1.40 °C1018.10 hPa89.00 %-3.20 °C 
04:15:00-1.10 °C1018.20 hPa90.00 %-2.70 °C 
04:00:00-0.80 °C1018.20 hPa90.00 %-2.40 °C 
03:45:00-0.40 °C1018.20 hPa90.00 %-2.00 °C 
03:30:000.00 °C1018.10 hPa90.00 %-1.60 °C 
03:15:000.10 °C1018.10 hPa90.00 %-1.30 °C 
03:00:00-0.10 °C1018.50 hPa90.00 %-1.70 °C 
02:45:00-0.20 °C1018.60 hPa90.00 %-1.80 °C 
02:30:00-0.80 °C1018.80 hPa90.00 %-2.40 °C 
02:15:00-1.50 °C1018.90 hPa89.00 %-3.30 °C 
02:00:00-1.90 °C1019.00 hPa88.00 %-3.80 °C 
01:45:00-1.60 °C1019.10 hPa88.00 %-3.50 °C 
01:30:00-1.10 °C1019.40 hPa88.00 %-3.00 °C 
01:15:00-0.70 °C1019.40 hPa88.00 %-2.60 °C 
01:00:00-0.90 °C1019.50 hPa88.00 %-2.80 °C 
00:45:00-0.70 °C1019.10 hPa88.00 %-2.60 °C 
00:30:00-0.40 °C1019.10 hPa88.00 %-2.30 °C 
00:15:00-0.40 °C1019.60 hPa88.00 %-2.30 °C 
00:00:00-0.50 °C1019.30 hPa87.00 %-2.60 °C 

Permanenter Link zu dieser Seite: Wetter im Erzgebirge am 23.04.2015
Performance-Info: Die Erstellung der Seite / Statistik(en) / Tabelle(n) erforderte 5 Datenbankserver-Abfrage(n) und dauerte 101 Millisekunden. (Dieser Messwert ist von der Gesamt-Auslastung des Servers abhängig.)
Erzgebirge - Wetter | Erzgebirge - Wetter (Mobilgeräte) | Komplette Klimadatenbank